sensor_id;sensor_type;location;lat;lon;timestamp;pressure;altitude;pressure_sealevel;temperature;humidity
54369;BME280;40266;52.434;17.056;2023-03-04T00:00:32;100563.55;;;1.21;97.39
54369;BME280;40266;52.434;17.056;2023-03-04T00:03:33;100561.36;;;1.23;97.25
54369;BME280;40266;52.434;17.056;2023-03-04T00:06:15;100557.76;;;1.24;97.20
54369;BME280;40266;52.434;17.056;2023-03-04T00:08:58;100553.98;;;1.24;97.18
54369;BME280;40266;52.434;17.056;2023-03-04T00:11:41;100553.48;;;1.25;97.09
54369;BME280;40266;52.434;17.056;2023-03-04T00:14:24;100554.20;;;1.26;97.05
54369;BME280;40266;52.434;17.056;2023-03-04T00:17:09;100554.55;;;1.28;96.93
54369;BME280;40266;52.434;17.056;2023-03-04T00:19:52;100553.05;;;1.30;96.93
54369;BME280;40266;52.434;17.056;2023-03-04T00:22:34;100549.09;;;1.30;96.82
54369;BME280;40266;52.434;17.056;2023-03-04T00:25:17;100545.48;;;1.30;96.78
54369;BME280;40266;52.434;17.056;2023-03-04T00:28:00;100544.64;;;1.31;96.77
54369;BME280;40266;52.434;17.056;2023-03-04T00:30:43;100545.85;;;1.31;96.74
54369;BME280;40266;52.434;17.056;2023-03-04T00:33:26;100544.48;;;1.32;96.74
54369;BME280;40266;52.434;17.056;2023-03-04T00:36:10;100540.88;;;1.32;96.57
54369;BME280;40266;52.434;17.056;2023-03-04T00:38:53;100536.75;;;1.33;96.60
54369;BME280;40266;52.434;17.056;2023-03-04T00:41:36;100531.59;;;1.33;96.57
54369;BME280;40266;52.434;17.056;2023-03-04T00:44:19;100527.30;;;1.34;96.55
54369;BME280;40266;52.434;17.056;2023-03-04T00:47:02;100526.29;;;1.34;96.45
54369;BME280;40266;52.434;17.056;2023-03-04T00:49:45;100525.23;;;1.33;96.27
54369;BME280;40266;52.434;17.056;2023-03-04T00:52:28;100516.82;;;1.34;96.43
54369;BME280;40266;52.434;17.056;2023-03-04T00:55:11;100515.27;;;1.34;96.33
54369;BME280;40266;52.434;17.056;2023-03-04T00:57:54;100512.17;;;1.34;96.34
54369;BME280;40266;52.434;17.056;2023-03-04T01:00:37;100502.70;;;1.34;96.27
54369;BME280;40266;52.434;17.056;2023-03-04T01:03:20;100497.73;;;1.34;96.19
54369;BME280;40266;52.434;17.056;2023-03-04T01:06:04;100499.45;;;1.34;96.33
54369;BME280;40266;52.434;17.056;2023-03-04T01:08:47;100494.98;;;1.35;96.26
54369;BME280;40266;52.434;17.056;2023-03-04T01:11:30;100485.34;;;1.35;96.19
54369;BME280;40266;52.434;17.056;2023-03-04T01:14:13;100478.98;;;1.36;96.14
54369;BME280;40266;52.434;17.056;2023-03-04T01:16:56;100470.90;;;1.36;95.99
54369;BME280;40266;52.434;17.056;2023-03-04T01:19:39;100462.65;;;1.36;96.08
54369;BME280;40266;52.434;17.056;2023-03-04T01:22:23;100457.85;;;1.36;95.94
54369;BME280;40266;52.434;17.056;2023-03-04T01:25:07;100450.61;;;1.37;95.83
54369;BME280;40266;52.434;17.056;2023-03-04T01:27:50;100440.82;;;1.37;95.79
54369;BME280;40266;52.434;17.056;2023-03-04T01:30:34;100433.09;;;1.38;95.80
54369;BME280;40266;52.434;17.056;2023-03-04T01:33:17;100429.14;;;1.38;95.51
54369;BME280;40266;52.434;17.056;2023-03-04T01:36:00;100421.75;;;1.39;95.50
54369;BME280;40266;52.434;17.056;2023-03-04T01:38:43;100417.97;;;1.39;95.35
54369;BME280;40266;52.434;17.056;2023-03-04T01:41:26;100410.58;;;1.40;95.29
54369;BME280;40266;52.434;17.056;2023-03-04T01:44:10;100401.45;;;1.40;95.22
54369;BME280;40266;52.434;17.056;2023-03-04T01:46:54;100396.30;;;1.40;95.19
54369;BME280;40266;52.434;17.056;2023-03-04T01:49:39;100391.46;;;1.40;95.15
54369;BME280;40266;52.434;17.056;2023-03-04T01:52:23;100387.34;;;1.39;95.13
54369;BME280;40266;52.434;17.056;2023-03-04T01:55:14;100384.05;;;1.39;95.04
54369;BME280;40266;52.434;17.056;2023-03-04T01:57:57;100374.08;;;1.39;95.07
54369;BME280;40266;52.434;17.056;2023-03-04T02:00:40;100371.14;;;1.38;94.93
54369;BME280;40266;52.434;17.056;2023-03-04T02:03:33;100363.73;;;1.37;94.84
54369;BME280;40266;52.434;17.056;2023-03-04T02:09:47;100354.78;;;1.37;94.47
54369;BME280;40266;52.434;17.056;2023-03-04T02:12:50;100355.64;;;1.38;94.45
54369;BME280;40266;52.434;17.056;2023-03-04T02:16:09;100349.46;;;1.38;94.43
54369;BME280;40266;52.434;17.056;2023-03-04T02:19:36;100343.63;;;1.39;94.31
54369;BME280;40266;52.434;17.056;2023-03-04T02:23:06;100341.23;;;1.39;94.20
54369;BME280;40266;52.434;17.056;2023-03-04T02:33:08;100335.38;;;1.40;94.00
54369;BME280;40266;52.434;17.056;2023-03-04T02:36:08;100337.27;;;1.39;93.87
54369;BME280;40266;52.434;17.056;2023-03-04T02:39:47;100333.82;;;1.39;94.00
54369;BME280;40266;52.434;17.056;2023-03-04T02:43:07;100331.27;;;1.41;93.92
54369;BME280;40266;52.434;17.056;2023-03-04T02:50:08;100326.49;;;1.43;93.75
54369;BME280;40266;52.434;17.056;2023-03-04T02:53:13;100320.97;;;1.42;93.56
54369;BME280;40266;52.434;17.056;2023-03-04T02:56:56;100323.03;;;1.43;93.39
54369;BME280;40266;52.434;17.056;2023-03-04T03:00:14;100325.82;;;1.44;93.34
54369;BME280;40266;52.434;17.056;2023-03-04T03:03:39;100326.67;;;1.45;93.26
54369;BME280;40266;52.434;17.056;2023-03-04T03:07:30;100327.73;;;1.45;93.23
54369;BME280;40266;52.434;17.056;2023-03-04T03:17:23;100323.42;;;1.46;92.81
54369;BME280;40266;52.434;17.056;2023-03-04T03:23:54;100324.29;;;1.47;92.68
54369;BME280;40266;52.434;17.056;2023-03-04T03:34:52;100323.80;;;1.48;92.51
54369;BME280;40266;52.434;17.056;2023-03-04T03:57:42;100318.34;;;1.52;91.82
54369;BME280;40266;52.434;17.056;2023-03-04T04:13:23;100325.95;;;1.55;91.39
54369;BME280;40266;52.434;17.056;2023-03-04T04:24:57;100321.31;;;1.56;91.41
54369;BME280;40266;52.434;17.056;2023-03-04T04:35:43;100306.48;;;1.53;91.22
54369;BME280;40266;52.434;17.056;2023-03-04T04:51:02;100299.23;;;1.52;90.77
54369;BME280;40266;52.434;17.056;2023-03-04T04:58:36;100282.89;;;1.52;90.95
54369;BME280;40266;52.434;17.056;2023-03-04T05:05:42;100273.60;;;1.53;90.90
54369;BME280;40266;52.434;17.056;2023-03-04T05:13:08;100266.91;;;1.54;90.99
54369;BME280;40266;52.434;17.056;2023-03-04T05:16:52;100264.85;;;1.55;91.21
54369;BME280;40266;52.434;17.056;2023-03-04T05:36:18;100260.07;;;1.59;91.16
54369;BME280;40266;52.434;17.056;2023-03-04T05:43:41;100261.48;;;1.60;91.27
54369;BME280;40266;52.434;17.056;2023-03-04T05:50:52;100270.29;;;1.62;91.35
54369;BME280;40266;52.434;17.056;2023-03-04T05:54:56;100266.52;;;1.64;91.33
54369;BME280;40266;52.434;17.056;2023-03-04T05:58:35;100266.36;;;1.65;91.46
54369;BME280;40266;52.434;17.056;2023-03-04T06:02:12;100265.15;;;1.66;91.51
54369;BME280;40266;52.434;17.056;2023-03-04T06:05:16;100256.21;;;1.66;91.59
54369;BME280;40266;52.434;17.056;2023-03-04T06:08:29;100258.80;;;1.67;91.49
54369;BME280;40266;52.434;17.056;2023-03-04T06:11:34;100260.02;;;1.67;91.63
54369;BME280;40266;52.434;17.056;2023-03-04T06:18:12;100260.55;;;1.69;91.67
54369;BME280;40266;52.434;17.056;2023-03-04T06:21:15;100257.29;;;1.70;91.84
54369;BME280;40266;52.434;17.056;2023-03-04T06:24:30;100259.38;;;1.72;91.81
54369;BME280;40266;52.434;17.056;2023-03-04T06:30:41;100255.98;;;1.76;91.93
54369;BME280;40266;52.434;17.056;2023-03-04T06:33:27;100252.05;;;1.79;92.00
54369;BME280;40266;52.434;17.056;2023-03-04T06:36:13;100255.37;;;1.82;91.93
54369;BME280;40266;52.434;17.056;2023-03-04T06:39:21;100251.95;;;1.85;91.90
54369;BME280;40266;52.434;17.056;2023-03-04T06:42:25;100250.63;;;1.90;91.99
54369;BME280;40266;52.434;17.056;2023-03-04T06:45:29;100246.37;;;1.94;92.04
54369;BME280;40266;52.434;17.056;2023-03-04T06:48:33;100254.17;;;1.99;92.05
54369;BME280;40266;52.434;17.056;2023-03-04T06:52:00;100250.95;;;2.04;92.04
54369;BME280;40266;52.434;17.056;2023-03-04T06:55:08;100247.72;;;2.07;92.05
54369;BME280;40266;52.434;17.056;2023-03-04T07:01:53;100242.63;;;2.16;92.02
54369;BME280;40266;52.434;17.056;2023-03-04T07:04:39;100246.12;;;2.20;91.97
54369;BME280;40266;52.434;17.056;2023-03-04T07:07:50;100244.43;;;2.23;91.99
54369;BME280;40266;52.434;17.056;2023-03-04T07:11:14;100238.27;;;2.28;92.01
54369;BME280;40266;52.434;17.056;2023-03-04T07:14:25;100238.48;;;2.32;92.03
54369;BME280;40266;52.434;17.056;2023-03-04T07:17:12;100238.17;;;2.37;92.02
54369;BME280;40266;52.434;17.056;2023-03-04T07:20:08;100246.13;;;2.39;91.84
54369;BME280;40266;52.434;17.056;2023-03-04T07:22:54;100245.63;;;2.41;91.85
54369;BME280;40266;52.434;17.056;2023-03-04T07:25:49;100244.79;;;2.44;91.91
54369;BME280;40266;52.434;17.056;2023-03-04T07:28:53;100243.95;;;2.46;91.91
54369;BME280;40266;52.434;17.056;2023-03-04T07:31:42;100244.48;;;2.47;91.76
54369;BME280;40266;52.434;17.056;2023-03-04T07:34:37;100247.75;;;2.47;91.98
54369;BME280;40266;52.434;17.056;2023-03-04T07:37:42;100243.64;;;2.51;91.95
54369;BME280;40266;52.434;17.056;2023-03-04T07:44:00;100239.36;;;2.55;92.03
54369;BME280;40266;52.434;17.056;2023-03-04T07:47:10;100237.83;;;2.58;92.07
54369;BME280;40266;52.434;17.056;2023-03-04T07:49:59;100241.83;;;2.61;92.00
54369;BME280;40266;52.434;17.056;2023-03-04T07:53:17;100238.23;;;2.62;92.05
54369;BME280;40266;52.434;17.056;2023-03-04T07:56:17;100239.98;;;2.66;92.12
54369;BME280;40266;52.434;17.056;2023-03-04T07:59:30;100238.45;;;2.69;92.08
54369;BME280;40266;52.434;17.056;2023-03-04T08:02:22;100235.16;;;2.71;92.11
54369;BME280;40266;52.434;17.056;2023-03-04T08:05:28;100234.52;;;2.73;92.05
54369;BME280;40266;52.434;17.056;2023-03-04T08:08:34;100231.95;;;2.76;92.11
54369;BME280;40266;52.434;17.056;2023-03-04T08:11:19;100231.28;;;2.79;92.14
54369;BME280;40266;52.434;17.056;2023-03-04T08:14:16;100230.77;;;2.82;92.17
54369;BME280;40266;52.434;17.056;2023-03-04T08:20:34;100231.19;;;2.92;92.19
54369;BME280;40266;52.434;17.056;2023-03-04T08:24:02;100228.28;;;2.95;92.19
54369;BME280;40266;52.434;17.056;2023-03-04T08:30:18;100223.89;;;3.09;92.42
54369;BME280;40266;52.434;17.056;2023-03-04T08:33:34;100220.11;;;3.14;92.31
54369;BME280;40266;52.434;17.056;2023-03-04T08:40:37;100223.79;;;3.24;92.25
54369;BME280;40266;52.434;17.056;2023-03-04T08:43:35;100220.70;;;3.26;92.18
54369;BME280;40266;52.434;17.056;2023-03-04T08:49:50;100217.94;;;3.30;92.30
54369;BME280;40266;52.434;17.056;2023-03-04T08:52:34;100216.94;;;3.32;92.45
54369;BME280;40266;52.434;17.056;2023-03-04T08:55:41;100212.45;;;3.36;92.56
54369;BME280;40266;52.434;17.056;2023-03-04T08:59:08;100211.44;;;3.39;92.65
54369;BME280;40266;52.434;17.056;2023-03-04T09:02:11;100214.72;;;3.41;92.70
54369;BME280;40266;52.434;17.056;2023-03-04T09:05:36;100218.70;;;3.43;92.86
54369;BME280;40266;52.434;17.056;2023-03-04T09:08:42;100215.60;;;3.46;92.86
54369;BME280;40266;52.434;17.056;2023-03-04T09:11:33;100219.91;;;3.46;93.16
54369;BME280;40266;52.434;17.056;2023-03-04T09:14:34;100215.77;;;3.46;93.30
54369;BME280;40266;52.434;17.056;2023-03-04T09:17:26;100218.73;;;3.50;93.60
54369;BME280;40266;52.434;17.056;2023-03-04T09:20:49;100217.36;;;3.53;93.95
54369;BME280;40266;52.434;17.056;2023-03-04T09:23:36;100214.61;;;3.54;94.02
54369;BME280;40266;52.434;17.056;2023-03-04T09:26:35;100210.64;;;3.55;94.24
54369;BME280;40266;52.434;17.056;2023-03-04T09:29:46;100209.45;;;3.64;94.74
54369;BME280;40266;52.434;17.056;2023-03-04T09:32:47;100204.13;;;3.72;94.95
54369;BME280;40266;52.434;17.056;2023-03-04T09:35:42;100202.95;;;3.80;94.98
54369;BME280;40266;52.434;17.056;2023-03-04T09:39:01;100200.71;;;3.89;95.02
54369;BME280;40266;52.434;17.056;2023-03-04T09:45:58;100198.33;;;4.08;95.56
54369;BME280;40266;52.434;17.056;2023-03-04T09:48:46;100201.10;;;4.18;95.51
54369;BME280;40266;52.434;17.056;2023-03-04T09:52:51;100199.23;;;4.31;95.60
54369;BME280;40266;52.434;17.056;2023-03-04T10:05:00;100186.55;;;4.90;95.49
54369;BME280;40266;52.434;17.056;2023-03-04T10:11:16;100184.41;;;5.15;94.99
54369;BME280;40266;52.434;17.056;2023-03-04T10:17:35;100182.30;;;5.24;94.68
54369;BME280;40266;52.434;17.056;2023-03-04T10:20:45;100176.55;;;5.33;94.33
54369;BME280;40266;52.434;17.056;2023-03-04T10:23:36;100175.66;;;5.41;94.40
54369;BME280;40266;52.434;17.056;2023-03-04T10:26:28;100172.16;;;5.49;94.26
54369;BME280;40266;52.434;17.056;2023-03-04T10:29:19;100171.09;;;5.55;93.89
54369;BME280;40266;52.434;17.056;2023-03-04T10:32:44;100168.16;;;5.54;93.56
54369;BME280;40266;52.434;17.056;2023-03-04T10:39:13;100161.70;;;5.61;93.83
54369;BME280;40266;52.434;17.056;2023-03-04T10:42:25;100158.91;;;5.63;93.08
54369;BME280;40266;52.434;17.056;2023-03-04T10:45:31;100154.98;;;5.56;92.72
54369;BME280;40266;52.434;17.056;2023-03-04T10:48:58;100149.63;;;5.51;92.56
54369;BME280;40266;52.434;17.056;2023-03-04T10:51:41;100149.83;;;5.47;92.35
54369;BME280;40266;52.434;17.056;2023-03-04T10:57:27;100149.52;;;5.38;92.29
54369;BME280;40266;52.434;17.056;2023-03-04T11:06:30;100149.94;;;5.19;92.01
54369;BME280;40266;52.434;17.056;2023-03-04T11:09:33;100144.08;;;5.16;92.42
54369;BME280;40266;52.434;17.056;2023-03-04T11:12:20;100147.20;;;5.13;92.61
54369;BME280;40266;52.434;17.056;2023-03-04T11:15:33;100141.16;;;5.07;92.54
54369;BME280;40266;52.434;17.056;2023-03-04T11:19:01;100138.95;;;4.98;92.77
54369;BME280;40266;52.434;17.056;2023-03-04T11:21:48;100140.85;;;4.94;92.94
54369;BME280;40266;52.434;17.056;2023-03-04T11:24:39;100142.23;;;4.98;93.14
54369;BME280;40266;52.434;17.056;2023-03-04T11:27:33;100139.29;;;5.00;93.26
54369;BME280;40266;52.434;17.056;2023-03-04T11:30:35;100139.79;;;5.05;93.33
54369;BME280;40266;52.434;17.056;2023-03-04T11:34:04;100138.38;;;5.11;93.45
54369;BME280;40266;52.434;17.056;2023-03-04T11:36:56;100139.95;;;5.10;93.01
54369;BME280;40266;52.434;17.056;2023-03-04T11:42:42;100134.06;;;5.09;93.09
54369;BME280;40266;52.434;17.056;2023-03-04T11:45:47;100134.76;;;5.08;92.92
54369;BME280;40266;52.434;17.056;2023-03-04T11:48:45;100131.83;;;5.06;92.60
54369;BME280;40266;52.434;17.056;2023-03-04T11:54:55;100135.42;;;5.14;93.10
54369;BME280;40266;52.434;17.056;2023-03-04T12:01:16;100129.50;;;5.24;92.91
54369;BME280;40266;52.434;17.056;2023-03-04T12:17:39;100122.52;;;5.36;91.38
54369;BME280;40266;52.434;17.056;2023-03-04T12:27:23;100104.88;;;5.62;90.91
54369;BME280;40266;52.434;17.056;2023-03-04T12:30:38;100106.39;;;5.70;90.51
54369;BME280;40266;52.434;17.056;2023-03-04T12:56:00;100126.55;;;5.25;86.82
54369;BME280;40266;52.434;17.056;2023-03-04T12:58:48;100134.35;;;5.24;86.75
54369;BME280;40266;52.434;17.056;2023-03-04T13:12:13;100194.33;;;4.93;86.99
54369;BME280;40266;52.434;17.056;2023-03-04T13:21:50;100195.76;;;4.59;87.81
54369;BME280;40266;52.434;17.056;2023-03-04T13:24:49;100195.42;;;4.53;88.09
54369;BME280;40266;52.434;17.056;2023-03-04T13:28:01;100198.53;;;4.48;88.45
54369;BME280;40266;52.434;17.056;2023-03-04T13:43:36;100200.94;;;4.19;89.21
54369;BME280;40266;52.434;17.056;2023-03-04T13:49:21;100205.09;;;4.14;89.42
54369;BME280;40266;52.434;17.056;2023-03-04T13:52:37;100206.11;;;4.12;89.46
54369;BME280;40266;52.434;17.056;2023-03-04T13:55:39;100210.44;;;4.09;89.35
54369;BME280;40266;52.434;17.056;2023-03-04T13:58:45;100206.27;;;4.05;89.21
54369;BME280;40266;52.434;17.056;2023-03-04T14:01:34;100212.49;;;4.03;89.35
54369;BME280;40266;52.434;17.056;2023-03-04T14:04:29;100213.52;;;3.97;89.22
54369;BME280;40266;52.434;17.056;2023-03-04T14:07:34;100209.89;;;3.90;89.03
54369;BME280;40266;52.434;17.056;2023-03-04T14:10:41;100210.90;;;3.84;89.23
54369;BME280;40266;52.434;17.056;2023-03-04T14:13:28;100206.40;;;3.83;89.48
54369;BME280;40266;52.434;17.056;2023-03-04T14:16:26;100207.45;;;3.86;89.49
54369;BME280;40266;52.434;17.056;2023-03-04T14:19:42;100204.68;;;3.85;89.54
54369;BME280;40266;52.434;17.056;2023-03-04T14:22:37;100204.34;;;3.89;89.52
54369;BME280;40266;52.434;17.056;2023-03-04T14:25:28;100209.02;;;3.93;89.49
54369;BME280;40266;52.434;17.056;2023-03-04T14:28:18;100206.27;;;3.97;89.38
54369;BME280;40266;52.434;17.056;2023-03-04T14:31:02;100207.65;;;3.99;89.24
54369;BME280;40266;52.434;17.056;2023-03-04T14:34:01;100208.36;;;4.02;89.05
54369;BME280;40266;52.434;17.056;2023-03-04T14:36:52;100212.52;;;4.06;88.74
54369;BME280;40266;52.434;17.056;2023-03-04T14:39:51;100213.71;;;4.06;88.84
54369;BME280;40266;52.434;17.056;2023-03-04T14:42:52;100211.46;;;4.07;88.73
54369;BME280;40266;52.434;17.056;2023-03-04T14:45:39;100207.84;;;4.07;88.56
54369;BME280;40266;52.434;17.056;2023-03-04T14:48:35;100213.89;;;4.08;88.35
54369;BME280;40266;52.434;17.056;2023-03-04T14:51:54;100214.41;;;4.09;88.53
54369;BME280;40266;52.434;17.056;2023-03-04T14:54:59;100214.41;;;4.09;88.15
54369;BME280;40266;52.434;17.056;2023-03-04T14:58:08;100221.15;;;4.08;87.74
54369;BME280;40266;52.434;17.056;2023-03-04T15:01:18;100220.11;;;4.06;87.32
54369;BME280;40266;52.434;17.056;2023-03-04T15:04:06;100215.79;;;4.06;87.24
54369;BME280;40266;52.434;17.056;2023-03-04T15:06:56;100209.55;;;4.02;86.72
54369;BME280;40266;52.434;17.056;2023-03-04T15:09:40;100211.80;;;3.93;86.35
54369;BME280;40266;52.434;17.056;2023-03-04T15:12:34;100217.30;;;3.86;86.14
54369;BME280;40266;52.434;17.056;2023-03-04T15:15:59;100214.34;;;3.79;85.81
54369;BME280;40266;52.434;17.056;2023-03-04T15:19:01;100211.90;;;3.73;85.44
54369;BME280;40266;52.434;17.056;2023-03-04T15:21:45;100209.11;;;3.65;85.14
54369;BME280;40266;52.434;17.056;2023-03-04T15:24:55;100210.47;;;3.57;85.05
54369;BME280;40266;52.434;17.056;2023-03-04T15:27:43;100214.58;;;3.49;84.80
54369;BME280;40266;52.434;17.056;2023-03-04T15:30:38;100219.89;;;3.38;84.18
54369;BME280;40266;52.434;17.056;2023-03-04T15:33:35;100217.08;;;3.30;84.05
54369;BME280;40266;52.434;17.056;2023-03-04T15:36:33;100218.27;;;3.24;83.97
54369;BME280;40266;52.434;17.056;2023-03-04T15:39:30;100219.62;;;3.18;84.14
54369;BME280;40266;52.434;17.056;2023-03-04T15:42:52;100222.52;;;3.09;83.93
54369;BME280;40266;52.434;17.056;2023-03-04T15:45:50;100230.73;;;3.00;83.91
54369;BME280;40266;52.434;17.056;2023-03-04T15:59:10;100240.29;;;2.63;83.71
54369;BME280;40266;52.434;17.056;2023-03-04T16:01:53;100242.48;;;2.55;83.68
54369;BME280;40266;52.434;17.056;2023-03-04T16:08:17;100244.91;;;2.39;83.86
54369;BME280;40266;52.434;17.056;2023-03-04T16:11:54;100247.59;;;2.30;83.96
54369;BME280;40266;52.434;17.056;2023-03-04T16:15:31;100250.95;;;2.20;84.21
54369;BME280;40266;52.434;17.056;2023-03-04T16:18:25;100258.11;;;2.12;84.35
54369;BME280;40266;52.434;17.056;2023-03-04T16:22:16;100267.48;;;2.04;84.44
54369;BME280;40266;52.434;17.056;2023-03-04T16:25:14;100267.39;;;1.94;84.55
54369;BME280;40266;52.434;17.056;2023-03-04T16:28:01;100273.50;;;1.87;84.61
54369;BME280;40266;52.434;17.056;2023-03-04T16:30:56;100273.08;;;1.80;84.60
54369;BME280;40266;52.434;17.056;2023-03-04T16:33:49;100282.30;;;1.73;84.66
54369;BME280;40266;52.434;17.056;2023-03-04T16:36:34;100287.02;;;1.65;84.68
54369;BME280;40266;52.434;17.056;2023-03-04T16:43:15;100298.45;;;1.45;84.90
54369;BME280;40266;52.434;17.056;2023-03-04T16:46:28;100302.29;;;1.36;84.82
54369;BME280;40266;52.434;17.056;2023-03-04T16:55:28;100316.47;;;1.05;83.97
54369;BME280;40266;52.434;17.056;2023-03-04T16:58:38;100318.77;;;0.98;83.37
54369;BME280;40266;52.434;17.056;2023-03-04T17:02:32;100325.88;;;0.91;82.27
54369;BME280;40266;52.434;17.056;2023-03-04T17:12:21;100344.34;;;0.66;80.79
54369;BME280;40266;52.434;17.056;2023-03-04T17:15:43;100347.46;;;0.57;80.09
54369;BME280;40266;52.434;17.056;2023-03-04T17:18:53;100345.91;;;0.47;79.80
54369;BME280;40266;52.434;17.056;2023-03-04T17:21:49;100357.49;;;0.42;79.33
54369;BME280;40266;52.434;17.056;2023-03-04T17:24:40;100363.52;;;0.34;79.41
54369;BME280;40266;52.434;17.056;2023-03-04T17:27:25;100363.86;;;0.24;79.06
54369;BME280;40266;52.434;17.056;2023-03-04T17:30:14;100364.48;;;0.12;78.97
54369;BME280;40266;52.434;17.056;2023-03-04T17:33:01;100366.37;;;0.03;78.83
54369;BME280;40266;52.434;17.056;2023-03-04T17:35:50;100369.91;;;-0.07;78.95
54369;BME280;40266;52.434;17.056;2023-03-04T17:38:55;100376.17;;;-0.20;78.79
54369;BME280;40266;52.434;17.056;2023-03-04T17:45:06;100378.35;;;-0.46;78.88
54369;BME280;40266;52.434;17.056;2023-03-04T17:48:14;100379.70;;;-0.55;78.81
54369;BME280;40266;52.434;17.056;2023-03-04T17:51:38;100388.75;;;-0.65;78.69
54369;BME280;40266;52.434;17.056;2023-03-04T17:57:45;100404.60;;;-0.75;78.80
54369;BME280;40266;52.434;17.056;2023-03-04T18:00:31;100407.92;;;-0.80;78.52
54369;BME280;40266;52.434;17.056;2023-03-04T18:03:48;100405.86;;;-0.80;77.78
54369;BME280;40266;52.434;17.056;2023-03-04T18:06:54;100410.73;;;-0.77;77.24
54369;BME280;40266;52.434;17.056;2023-03-04T18:09:40;100413.38;;;-0.74;77.18
54369;BME280;40266;52.434;17.056;2023-03-04T18:12:56;100417.91;;;-0.71;76.67
54369;BME280;40266;52.434;17.056;2023-03-04T18:16:21;100417.74;;;-0.71;76.38
54369;BME280;40266;52.434;17.056;2023-03-04T18:19:27;100418.59;;;-0.71;76.12
54369;BME280;40266;52.434;17.056;2023-03-04T18:22:36;100422.85;;;-0.72;75.68
54369;BME280;40266;52.434;17.056;2023-03-04T18:25:27;100425.61;;;-0.71;75.56
54369;BME280;40266;52.434;17.056;2023-03-04T18:28:24;100428.16;;;-0.73;75.33
54369;BME280;40266;52.434;17.056;2023-03-04T18:31:47;100435.85;;;-0.74;75.02
54369;BME280;40266;52.434;17.056;2023-03-04T18:34:28;100434.43;;;-0.76;74.82
54369;BME280;40266;52.434;17.056;2023-03-04T18:37:19;100438.67;;;-0.77;74.58
54369;BME280;40266;52.434;17.056;2023-03-04T18:40:09;100438.21;;;-0.82;74.51
54369;BME280;40266;52.434;17.056;2023-03-04T18:43:16;100437.10;;;-0.86;74.19
54369;BME280;40266;52.434;17.056;2023-03-04T18:46:31;100437.81;;;-0.92;74.23
54369;BME280;40266;52.434;17.056;2023-03-04T18:49:33;100439.40;;;-0.96;73.92
54369;BME280;40266;52.434;17.056;2023-03-04T18:52:36;100442.55;;;-1.01;73.82
54369;BME280;40266;52.434;17.056;2023-03-04T18:55:25;100443.93;;;-1.07;73.71
54369;BME280;40266;52.434;17.056;2023-03-04T18:58:11;100444.29;;;-1.13;73.74
54369;BME280;40266;52.434;17.056;2023-03-04T19:00:55;100441.09;;;-1.18;73.69
54369;BME280;40266;52.434;17.056;2023-03-04T19:03:40;100445.39;;;-1.23;73.70
54369;BME280;40266;52.434;17.056;2023-03-04T19:06:54;100441.98;;;-1.29;73.81
54369;BME280;40266;52.434;17.056;2023-03-04T19:10:14;100444.88;;;-1.36;73.64
54369;BME280;40266;52.434;17.056;2023-03-04T19:12:55;100445.55;;;-1.42;73.61
54369;BME280;40266;52.434;17.056;2023-03-04T19:15:41;100447.27;;;-1.49;73.86
54369;BME280;40266;52.434;17.056;2023-03-04T19:18:33;100447.94;;;-1.56;73.86
54369;BME280;40266;52.434;17.056;2023-03-04T19:21:58;100449.64;;;-1.62;74.04
54369;BME280;40266;52.434;17.056;2023-03-04T19:24:44;100447.35;;;-1.70;74.18
54369;BME280;40266;52.434;17.056;2023-03-04T19:27:28;100450.23;;;-1.77;74.32
54369;BME280;40266;52.434;17.056;2023-03-04T19:33:19;100445.02;;;-1.92;74.45
54369;BME280;40266;52.434;17.056;2023-03-04T19:39:33;100447.09;;;-2.08;74.35
54369;BME280;40266;52.434;17.056;2023-03-04T19:43:12;100449.61;;;-2.16;74.78
54369;BME280;40266;52.434;17.056;2023-03-04T19:45:59;100449.94;;;-2.22;74.84
54369;BME280;40266;52.434;17.056;2023-03-04T19:48:48;100449.41;;;-2.28;74.81
54369;BME280;40266;52.434;17.056;2023-03-04T19:51:44;100452.14;;;-2.34;74.98
54369;BME280;40266;52.434;17.056;2023-03-04T19:54:35;100452.97;;;-2.41;75.05
54369;BME280;40266;52.434;17.056;2023-03-04T19:58:21;100454.75;;;-2.48;75.26
54369;BME280;40266;52.434;17.056;2023-03-04T20:05:27;100458.06;;;-2.62;75.48
54369;BME280;40266;52.434;17.056;2023-03-04T20:12:23;100458.59;;;-2.78;75.92
54369;BME280;40266;52.434;17.056;2023-03-04T20:15:59;100452.30;;;-2.82;76.06
54369;BME280;40266;52.434;17.056;2023-03-04T20:49:13;100459.85;;;-3.27;77.31
54369;BME280;40266;52.434;17.056;2023-03-04T20:52:24;100458.85;;;-3.31;77.54
54369;BME280;40266;52.434;17.056;2023-03-04T20:56:04;100458.45;;;-3.37;77.68
54369;BME280;40266;52.434;17.056;2023-03-04T21:03:13;100457.64;;;-3.51;77.97
54369;BME280;40266;52.434;17.056;2023-03-04T21:07:19;100456.45;;;-3.55;78.08
54369;BME280;40266;52.434;17.056;2023-03-04T21:18:17;100454.79;;;-3.69;78.54
54369;BME280;40266;52.434;17.056;2023-03-04T21:32:53;100444.49;;;-3.88;79.21
54369;BME280;40266;52.434;17.056;2023-03-04T21:39:47;100446.66;;;-3.99;79.23
54369;BME280;40266;52.434;17.056;2023-03-04T21:43:03;100442.22;;;-4.04;79.40
54369;BME280;40266;52.434;17.056;2023-03-04T21:46:32;100437.90;;;-4.10;79.63
54369;BME280;40266;52.434;17.056;2023-03-04T21:57:47;100430.55;;;-4.28;79.84
54369;BME280;40266;52.434;17.056;2023-03-04T22:00:57;100426.09;;;-4.33;80.07
54369;BME280;40266;52.434;17.056;2023-03-04T22:03:56;100426.41;;;-4.38;80.01
54369;BME280;40266;52.434;17.056;2023-03-04T22:06:50;100425.44;;;-4.41;80.28
54369;BME280;40266;52.434;17.056;2023-03-04T22:13:43;100424.00;;;-4.48;80.62
54369;BME280;40266;52.434;17.056;2023-03-04T22:17:04;100417.87;;;-4.52;80.70
54369;BME280;40266;52.434;17.056;2023-03-04T22:19:57;100416.19;;;-4.56;80.88